createdAt,value
2023-02-12T00:01:15.126Z,36.55
2023-02-12T00:02:39.818Z,30.48
2023-02-12T00:04:11.726Z,36.40
2023-02-12T00:05:51.743Z,33.50
2023-02-12T00:07:23.563Z,33.03
2023-02-12T00:08:48.042Z,34.53
2023-02-12T00:10:19.697Z,34.72
2023-02-12T00:11:43.808Z,33.97
2023-02-12T00:13:10.447Z,35.53
2023-02-12T00:14:34.828Z,33.47
2023-02-12T00:15:56.529Z,35.00
2023-02-12T00:17:19.714Z,31.70
2023-02-12T00:18:40.985Z,35.13
2023-02-12T00:20:04.107Z,33.38
2023-02-12T00:21:26.241Z,34.28
2023-02-12T00:24:14.003Z,32.30
2023-02-12T00:25:37.479Z,32.22
2023-02-12T00:27:00.010Z,33.28
2023-02-12T00:28:22.208Z,32.13
2023-02-12T00:31:08.428Z,29.88
2023-02-12T00:32:30.877Z,31.83
2023-02-12T00:34:03.427Z,32.72
2023-02-12T00:35:25.126Z,32.20
2023-02-12T00:36:47.915Z,34.42
2023-02-12T00:38:11.253Z,28.90
2023-02-12T00:39:38.214Z,33.00
2023-02-12T00:40:59.352Z,29.80
2023-02-12T00:42:21.816Z,33.30
2023-02-12T00:43:43.413Z,31.88
2023-02-12T00:45:08.652Z,32.55
2023-02-12T00:46:30.986Z,34.50
2023-02-12T00:47:55.109Z,33.83
2023-02-12T00:49:19.218Z,31.42
2023-02-12T00:50:44.246Z,32.92
2023-02-12T00:52:07.227Z,32.13
2023-02-12T00:53:29.013Z,31.45
2023-02-12T00:54:51.475Z,32.92
2023-02-12T00:56:21.678Z,31.48
2023-02-12T00:57:44.636Z,31.85
2023-02-12T00:59:06.082Z,31.60
2023-02-12T01:00:31.959Z,31.45
2023-02-12T01:01:56.748Z,29.60
2023-02-12T01:03:18.620Z,28.85
2023-02-12T01:04:43.929Z,32.05
2023-02-12T01:06:09.190Z,32.67
2023-02-12T01:07:33.189Z,31.75
2023-02-12T01:08:55.391Z,32.88
2023-02-12T01:10:18.526Z,30.40
2023-02-12T01:11:45.888Z,28.92
2023-02-12T01:13:08.314Z,29.88
2023-02-12T01:14:32.662Z,32.95
2023-02-12T01:16:10.918Z,30.83
2023-02-12T01:17:33.708Z,28.88
2023-02-12T01:18:57.289Z,28.73
2023-02-12T01:20:25.823Z,30.67
2023-02-12T01:21:48.600Z,32.00
2023-02-12T01:23:13.640Z,30.23
2023-02-12T01:24:37.306Z,32.65
2023-02-12T01:26:02.972Z,33.70
2023-02-12T01:27:25.285Z,32.50
2023-02-12T01:28:51.930Z,28.88
2023-02-12T01:30:22.357Z,31.23
2023-02-12T01:33:11.260Z,30.02
2023-02-12T01:34:33.709Z,29.13
2023-02-12T01:35:55.548Z,29.92
2023-02-12T01:37:18.291Z,29.33
2023-02-12T01:38:39.976Z,28.80
2023-02-12T01:40:06.466Z,30.50
2023-02-12T01:41:35.937Z,27.27
2023-02-12T01:43:05.463Z,29.05
2023-02-12T01:44:30.934Z,30.23
2023-02-12T01:45:54.271Z,30.60
2023-02-12T01:47:23.787Z,30.25
2023-02-12T01:48:48.535Z,30.55
2023-02-12T01:50:14.577Z,29.08
2023-02-12T01:51:40.069Z,27.73
2023-02-12T01:53:04.604Z,26.17
2023-02-12T01:54:28.459Z,26.85
2023-02-12T01:55:54.200Z,31.17
2023-02-12T01:57:21.306Z,31.85
2023-02-12T01:58:46.367Z,28.75
2023-02-12T02:00:12.935Z,30.98
2023-02-12T02:01:38.848Z,26.08
2023-02-12T02:03:04.906Z,25.92
2023-02-12T02:04:33.921Z,24.35
2023-02-12T02:05:59.549Z,25.77
2023-02-12T02:07:21.902Z,27.08
2023-02-12T02:08:46.074Z,25.10
2023-02-12T02:10:10.133Z,24.15
2023-02-12T02:11:50.089Z,30.13
2023-02-12T02:13:29.994Z,25.92
2023-02-12T02:14:53.968Z,29.08
2023-02-12T02:16:21.182Z,23.08
2023-02-12T02:17:53.185Z,28.08
2023-02-12T02:19:32.681Z,29.90
2023-02-12T02:21:27.724Z,28.98
2023-02-12T02:23:01.981Z,24.40
2023-02-12T02:25:05.709Z,25.38
2023-02-12T02:26:51.022Z,27.20
2023-02-12T02:28:36.941Z,26.00
2023-02-12T02:30:45.495Z,26.40
2023-02-12T02:32:11.962Z,22.95
2023-02-12T02:33:44.758Z,24.50
2023-02-12T02:35:11.997Z,26.98
2023-02-12T02:36:59.669Z,26.27
2023-02-12T02:38:29.764Z,22.42
2023-02-12T02:39:59.990Z,23.45
2023-02-12T02:41:30.599Z,26.23
2023-02-12T02:42:57.459Z,25.95
2023-02-12T02:44:26.458Z,21.90
2023-02-12T02:45:52.002Z,26.15
2023-02-12T02:47:17.502Z,25.95
2023-02-12T02:48:44.522Z,24.85
2023-02-12T02:50:10.902Z,24.05
2023-02-12T02:51:37.616Z,25.20
2023-02-12T02:53:04.105Z,25.13
2023-02-12T02:54:33.065Z,23.25
2023-02-12T02:56:00.316Z,23.73
2023-02-12T02:57:28.775Z,25.27
2023-02-12T02:58:57.494Z,24.63
2023-02-12T03:00:22.029Z,25.15
2023-02-12T03:01:53.549Z,24.38
2023-02-12T03:03:25.419Z,21.77
2023-02-12T03:04:52.620Z,24.17
2023-02-12T03:06:19.878Z,22.08
2023-02-12T03:07:47.199Z,22.95
2023-02-12T03:09:18.461Z,23.63
2023-02-12T03:10:46.537Z,23.13
2023-02-12T03:12:13.758Z,23.35
2023-02-12T03:13:40.585Z,22.02
2023-02-12T03:15:07.731Z,23.55
2023-02-12T03:16:33.289Z,23.08
2023-02-12T03:18:00.273Z,22.73
2023-02-12T03:19:36.678Z,23.00
2023-02-12T03:21:02.854Z,21.23
2023-02-12T03:22:29.711Z,23.20
2023-02-12T03:23:56.976Z,21.08
2023-02-12T03:25:24.188Z,21.63
2023-02-12T03:26:52.155Z,22.15
2023-02-12T03:28:25.160Z,20.20
2023-02-12T03:29:48.105Z,19.83
2023-02-12T03:31:20.374Z,21.38
2023-02-12T03:32:51.582Z,21.30
2023-02-12T03:34:23.751Z,22.73
2023-02-12T03:35:56.788Z,21.33
2023-02-12T03:37:22.777Z,22.25
2023-02-12T03:38:53.708Z,21.55
2023-02-12T03:40:23.667Z,23.33
2023-02-12T03:41:51.232Z,20.77
2023-02-12T03:43:23.599Z,21.25
2023-02-12T03:44:59.167Z,19.83
2023-02-12T03:46:26.857Z,19.52
2023-02-12T03:47:59.600Z,19.95
2023-02-12T03:49:30.170Z,21.13
2023-02-12T03:50:58.698Z,20.38
2023-02-12T03:52:22.397Z,18.85
2023-02-12T03:53:45.018Z,22.02
2023-02-12T03:55:10.495Z,17.83
2023-02-12T03:56:37.997Z,19.38
2023-02-12T03:58:09.135Z,20.33
2023-02-12T03:59:37.404Z,19.52
2023-02-12T04:01:05.693Z,19.25
2023-02-12T04:02:32.368Z,20.42
2023-02-12T04:03:54.345Z,17.65
2023-02-12T04:05:26.946Z,18.83
2023-02-12T04:06:50.920Z,16.58
2023-02-12T04:08:14.528Z,19.75
2023-02-12T04:09:36.285Z,19.67
2023-02-12T04:11:07.917Z,20.15
2023-02-12T04:12:44.586Z,21.95
2023-02-12T04:14:19.864Z,17.88
2023-02-12T04:15:58.744Z,19.60
2023-02-12T04:17:29.497Z,18.92
2023-02-12T04:18:52.326Z,18.52
2023-02-12T04:20:28.465Z,19.83
2023-02-12T04:22:03.416Z,20.48
2023-02-12T04:23:45.864Z,20.40
2023-02-12T04:25:22.756Z,20.67
2023-02-12T04:26:58.166Z,20.92
2023-02-12T04:28:28.722Z,20.45
2023-02-12T04:29:56.338Z,20.10
2023-02-12T04:31:26.981Z,20.88
2023-02-12T04:32:54.493Z,19.83
2023-02-12T04:34:22.444Z,18.92
2023-02-12T04:35:50.312Z,20.95
2023-02-12T04:37:20.967Z,21.13
2023-02-12T04:38:47.138Z,19.48
2023-02-12T04:40:15.355Z,19.25
2023-02-12T04:41:39.325Z,16.52
2023-02-12T04:43:04.387Z,16.75
2023-02-12T04:44:30.386Z,18.98
2023-02-12T04:45:53.145Z,19.75
2023-02-12T04:47:17.776Z,18.63
2023-02-12T04:48:53.689Z,19.77
2023-02-12T04:50:15.727Z,19.02
2023-02-12T04:51:40.993Z,19.35
2023-02-12T04:53:09.461Z,20.48
2023-02-12T04:54:33.914Z,18.77
2023-02-12T04:55:56.688Z,19.95
2023-02-12T04:57:20.822Z,18.63
2023-02-12T04:58:44.755Z,20.08
2023-02-12T05:00:11.277Z,21.58
2023-02-12T05:01:35.391Z,19.13
2023-02-12T05:03:00.049Z,19.35
2023-02-12T05:04:32.024Z,18.70
2023-02-12T05:05:59.525Z,20.10
2023-02-12T05:07:24.822Z,19.27
2023-02-12T05:08:49.856Z,19.85
2023-02-12T05:10:12.891Z,18.38
2023-02-12T05:11:34.299Z,20.38
2023-02-12T05:13:00.550Z,17.98
2023-02-12T05:14:25.553Z,21.10
2023-02-12T05:15:46.860Z,17.63
2023-02-12T05:17:09.231Z,20.73
2023-02-12T05:18:33.786Z,19.25
2023-02-12T05:21:17.541Z,18.30
2023-02-12T05:22:39.791Z,18.52
2023-02-12T05:24:04.271Z,18.08
2023-02-12T05:25:29.059Z,18.83
2023-02-12T05:26:52.251Z,18.95
2023-02-12T05:28:15.812Z,19.20
2023-02-12T05:29:40.568Z,17.85
2023-02-12T05:31:02.789Z,19.02
2023-02-12T05:32:25.494Z,20.27
2023-02-12T05:33:51.334Z,20.85
2023-02-12T05:35:15.688Z,17.00
2023-02-12T05:36:38.181Z,19.52
2023-02-12T05:38:01.428Z,18.52
2023-02-12T05:39:25.529Z,20.65
2023-02-12T05:40:52.925Z,19.40
2023-02-12T05:42:15.309Z,18.05
2023-02-12T05:43:36.903Z,17.00
2023-02-12T05:44:59.566Z,18.92
2023-02-12T05:46:22.562Z,18.67
2023-02-12T05:47:45.391Z,18.50
2023-02-12T05:49:08.082Z,18.55
2023-02-12T05:50:33.142Z,16.60
2023-02-12T05:51:55.408Z,18.35
2023-02-12T05:53:16.715Z,20.02
2023-02-12T05:54:40.639Z,17.95
2023-02-12T05:56:11.201Z,17.70
2023-02-12T05:57:34.937Z,18.52
2023-02-12T05:59:07.019Z,17.23
2023-02-12T06:00:35.150Z,19.15
2023-02-12T06:02:04.020Z,19.15
2023-02-12T06:03:25.450Z,19.50
2023-02-12T06:04:48.743Z,19.27
2023-02-12T06:06:10.872Z,19.40
2023-02-12T06:07:33.582Z,20.42
2023-02-12T06:09:02.421Z,16.50
2023-02-12T06:10:26.727Z,17.98
2023-02-12T06:11:49.054Z,20.10
2023-02-12T06:13:22.818Z,18.65
2023-02-12T06:14:45.302Z,19.60
2023-02-12T06:17:29.757Z,17.98
2023-02-12T06:18:51.844Z,17.95
2023-02-12T06:20:14.719Z,18.80
2023-02-12T06:21:36.985Z,20.33
2023-02-12T06:22:59.675Z,17.90
2023-02-12T06:24:22.285Z,18.17
2023-02-12T06:25:47.560Z,18.05
2023-02-12T06:27:10.213Z,18.73
2023-02-12T06:28:33.673Z,21.00
2023-02-12T06:29:58.433Z,17.63
2023-02-12T06:31:25.800Z,20.98
2023-02-12T06:32:51.359Z,19.17
2023-02-12T06:34:19.314Z,16.40
2023-02-12T06:35:42.046Z,20.50
2023-02-12T06:37:14.019Z,20.20
2023-02-12T06:39:59.914Z,16.75
2023-02-12T06:41:24.548Z,19.23
2023-02-12T06:42:45.872Z,18.17
2023-02-12T06:44:09.023Z,19.60
2023-02-12T06:45:32.201Z,19.73
2023-02-12T06:46:54.755Z,20.40
2023-02-12T06:48:17.114Z,20.00
2023-02-12T06:49:46.298Z,25.00
2023-02-12T06:51:12.354Z,24.58
2023-02-12T06:52:33.977Z,24.50
2023-02-12T06:53:57.598Z,21.40
2023-02-12T06:55:19.614Z,23.23
2023-02-12T06:56:48.648Z,23.17
2023-02-12T06:58:10.863Z,20.10
2023-02-12T06:59:37.319Z,23.10
2023-02-12T07:01:15.097Z,25.77
2023-02-12T07:02:40.147Z,32.38
2023-02-12T07:04:06.255Z,29.35
2023-02-12T07:07:50.083Z,39.03
2023-02-12T07:09:26.711Z,29.65
2023-02-12T07:10:53.901Z,21.70
2023-02-12T07:12:29.404Z,23.85
2023-02-12T07:13:57.525Z,23.00
2023-02-12T07:15:36.849Z,19.33
2023-02-12T07:17:11.329Z,18.10
2023-02-12T07:18:40.910Z,17.80
2023-02-12T07:20:13.036Z,17.88
2023-02-12T07:21:36.988Z,19.23
2023-02-12T07:23:03.100Z,17.63
2023-02-12T07:26:56.358Z,17.38
2023-02-12T07:28:33.745Z,18.15
2023-02-12T07:30:20.180Z,18.73
2023-02-12T07:31:58.239Z,18.33
2023-02-12T07:33:26.373Z,17.20
2023-02-12T07:34:49.071Z,16.55
2023-02-12T07:36:17.630Z,17.40
2023-02-12T07:37:41.980Z,17.30
2023-02-12T07:39:33.186Z,16.67
2023-02-12T07:40:57.654Z,17.45
2023-02-12T07:42:36.169Z,17.70
2023-02-12T07:44:16.692Z,17.27
2023-02-12T07:45:41.248Z,17.13
2023-02-12T07:47:39.504Z,17.20
2023-02-12T07:49:19.365Z,16.83
2023-02-12T07:51:13.538Z,14.65
2023-02-12T07:52:44.704Z,16.38
2023-02-12T07:54:14.584Z,16.15
2023-02-12T07:55:37.098Z,16.08
2023-02-12T07:57:02.731Z,17.30
2023-02-12T07:58:27.478Z,15.13
2023-02-12T08:00:00.102Z,15.65
2023-02-12T08:01:28.972Z,16.42
2023-02-12T08:03:00.446Z,17.17
2023-02-12T08:04:27.325Z,18.13
2023-02-12T08:06:00.361Z,16.23
2023-02-12T08:07:42.556Z,18.00
2023-02-12T08:11:51.360Z,17.30
2023-02-12T08:13:20.246Z,19.35
2023-02-12T08:14:48.819Z,17.33
2023-02-12T08:16:34.830Z,17.42
2023-02-12T08:18:08.951Z,17.63
2023-02-12T08:19:39.092Z,17.92
2023-02-12T08:21:16.381Z,18.27
2023-02-12T08:22:38.980Z,19.52
2023-02-12T08:24:03.176Z,17.20
2023-02-12T08:25:26.983Z,17.60
2023-02-12T08:26:56.987Z,16.88
2023-02-12T08:28:19.658Z,17.52
2023-02-12T08:29:47.012Z,18.10
2023-02-12T08:31:23.971Z,17.38
2023-02-12T08:32:58.161Z,18.15
2023-02-12T08:34:35.505Z,18.33
2023-02-12T08:36:08.557Z,17.75
2023-02-12T08:37:47.541Z,18.55
2023-02-12T08:39:11.562Z,17.90
2023-02-12T08:40:38.085Z,17.20
2023-02-12T08:42:08.613Z,18.80
2023-02-12T08:43:33.410Z,17.30
2023-02-12T08:44:59.059Z,18.35
2023-02-12T08:46:55.945Z,19.90
2023-02-12T08:50:25.647Z,21.30
2023-02-12T08:57:31.741Z,30.60
2023-02-12T08:59:37.045Z,32.08
2023-02-12T09:01:10.993Z,32.75
2023-02-12T09:02:50.471Z,30.75
2023-02-12T09:04:23.965Z,23.33
2023-02-12T09:06:08.824Z,22.08
2023-02-12T09:07:33.511Z,22.33
2023-02-12T09:08:59.834Z,21.15
2023-02-12T09:10:27.489Z,19.95
2023-02-12T09:11:53.433Z,21.42
2023-02-12T09:13:20.628Z,19.23
2023-02-12T09:14:43.828Z,20.80
2023-02-12T09:16:21.047Z,21.42
2023-02-12T09:17:51.373Z,18.95
2023-02-12T09:19:37.161Z,19.60
2023-02-12T09:21:06.114Z,21.10
2023-02-12T09:22:49.774Z,20.00
2023-02-12T09:24:21.535Z,21.77
2023-02-12T09:25:52.069Z,20.75
2023-02-12T09:27:21.906Z,22.60
2023-02-12T09:29:00.834Z,21.30
2023-02-12T09:39:50.143Z,17.50
2023-02-12T09:41:45.161Z,16.50
2023-02-12T09:43:33.407Z,17.50
2023-02-12T09:45:08.877Z,17.45
2023-02-12T09:46:42.284Z,18.55
2023-02-12T09:48:37.608Z,17.98
2023-02-12T09:50:29.400Z,19.40
2023-02-12T09:52:28.625Z,18.23
2023-02-12T09:54:06.241Z,16.70
2023-02-12T09:55:36.006Z,17.67
2023-02-12T09:57:39.023Z,19.63
2023-02-12T09:59:19.147Z,18.98
2023-02-12T10:00:49.435Z,19.13
2023-02-12T10:02:19.344Z,18.13
2023-02-12T10:03:57.327Z,16.80
2023-02-12T10:05:33.831Z,17.35
2023-02-12T10:12:48.198Z,15.23
2023-02-12T10:15:08.075Z,16.55
2023-02-12T10:16:48.015Z,15.95
2023-02-12T10:18:38.601Z,16.52
2023-02-12T10:20:35.044Z,15.65
2023-02-12T10:22:13.998Z,17.00
2023-02-12T10:24:14.588Z,15.55
2023-02-12T10:25:47.112Z,17.13
2023-02-12T10:27:23.872Z,16.02
2023-02-12T10:29:17.496Z,15.82
2023-02-12T10:30:54.963Z,15.48
2023-02-12T10:32:29.186Z,15.68
2023-02-12T10:34:26.227Z,16.63
2023-02-12T10:36:11.624Z,15.38
2023-02-12T10:37:48.297Z,14.48
2023-02-12T10:39:58.148Z,13.30
2023-02-12T10:43:17.344Z,16.95
2023-02-12T10:45:05.239Z,14.82
2023-02-12T10:46:32.748Z,14.93
2023-02-12T10:48:43.075Z,15.00
2023-02-12T10:50:56.559Z,14.07
2023-02-12T10:53:12.279Z,14.77
2023-02-12T10:54:55.541Z,15.65
2023-02-12T10:56:23.329Z,15.45
2023-02-12T10:58:03.586Z,20.00
2023-02-12T10:59:33.026Z,16.63
2023-02-12T11:03:41.150Z,12.38
2023-02-12T11:07:56.381Z,11.90
2023-02-12T11:09:37.558Z,11.25
2023-02-12T11:18:05.742Z,10.95
2023-02-12T11:21:51.066Z,9.63
2023-02-12T11:23:39.744Z,9.70
2023-02-12T11:25:20.932Z,10.23
2023-02-12T11:26:45.478Z,10.82
2023-02-12T11:28:21.175Z,9.73
2023-02-12T11:29:51.794Z,12.23
2023-02-12T11:31:24.994Z,11.57
2023-02-12T11:34:14.875Z,10.75
2023-02-12T11:36:13.737Z,11.13
2023-02-12T11:37:50.160Z,11.70
2023-02-12T11:39:22.909Z,10.10
2023-02-12T11:40:57.541Z,11.68
2023-02-12T11:43:04.514Z,11.40
2023-02-12T11:44:50.065Z,12.15
2023-02-12T11:46:21.318Z,12.95
2023-02-12T11:47:46.434Z,12.00
2023-02-12T11:49:11.926Z,11.98
2023-02-12T11:50:43.710Z,12.25
2023-02-12T11:54:14.324Z,12.30
2023-02-12T11:55:52.938Z,10.98
2023-02-12T11:59:46.878Z,10.82
2023-02-12T12:06:49.303Z,9.15
2023-02-12T12:08:51.435Z,8.52
2023-02-12T12:13:03.731Z,8.98
2023-02-12T12:15:00.802Z,8.18
2023-02-12T12:21:40.532Z,11.02
2023-02-12T12:24:13.988Z,10.65
2023-02-12T12:31:18.229Z,8.57
2023-02-12T12:33:21.507Z,9.98
2023-02-12T12:35:00.391Z,9.50
2023-02-12T12:39:50.978Z,8.40
2023-02-12T12:41:36.221Z,9.38
2023-02-12T12:43:25.458Z,9.43
2023-02-12T12:45:16.281Z,9.95
2023-02-12T12:47:04.980Z,9.85
2023-02-12T12:48:53.815Z,9.70
2023-02-12T12:50:37.614Z,8.60
2023-02-12T12:53:08.423Z,9.43
2023-02-12T12:54:58.500Z,7.78
2023-02-12T12:57:08.472Z,7.57
2023-02-12T12:59:13.091Z,8.02
2023-02-12T13:01:23.025Z,8.70
2023-02-12T13:03:37.970Z,8.15
2023-02-12T13:06:01.996Z,6.65
2023-02-12T13:07:54.009Z,8.55
2023-02-12T13:10:04.755Z,7.80
2023-02-12T13:12:16.704Z,6.53
2023-02-12T13:14:11.406Z,6.82
2023-02-12T13:16:47.596Z,7.75
2023-02-12T13:18:41.430Z,7.22
2023-02-12T13:20:23.800Z,6.60
2023-02-12T13:22:16.084Z,7.28
2023-02-12T13:23:55.728Z,7.57
2023-02-12T13:25:37.382Z,7.65
2023-02-12T13:27:08.407Z,7.55
2023-02-12T13:28:44.057Z,8.38
2023-02-12T13:30:21.677Z,7.38
2023-02-12T13:31:51.177Z,7.55
2023-02-12T13:33:25.995Z,8.10
2023-02-12T13:34:56.485Z,7.82
2023-02-12T13:36:23.616Z,8.00
2023-02-12T13:37:51.632Z,6.38
2023-02-12T13:41:25.192Z,7.45
2023-02-12T13:43:41.913Z,6.32
2023-02-12T13:45:38.295Z,5.25
2023-02-12T13:47:14.666Z,6.05
2023-02-12T13:49:07.564Z,6.55
2023-02-12T13:52:17.622Z,5.05
2023-02-12T13:53:59.729Z,5.18
2023-02-12T13:55:36.249Z,5.43
2023-02-12T13:57:32.810Z,4.63
2023-02-12T13:59:01.708Z,5.97
2023-02-12T14:01:19.039Z,5.50
2023-02-12T14:02:51.981Z,4.90
2023-02-12T14:04:45.864Z,6.10
2023-02-12T14:06:28.651Z,4.75
2023-02-12T14:07:58.157Z,5.35
2023-02-12T14:09:32.571Z,4.95
2023-02-12T14:11:27.809Z,5.55
2023-02-12T14:13:25.703Z,5.35
2023-02-12T14:15:53.973Z,6.95
2023-02-12T14:17:55.227Z,6.82
2023-02-12T14:19:58.059Z,6.80
2023-02-12T14:21:46.404Z,7.25
2023-02-12T14:23:34.831Z,6.53
2023-02-12T14:25:03.354Z,6.40
2023-02-12T14:26:38.603Z,14.38
2023-02-12T14:28:14.084Z,11.48
2023-02-12T14:29:39.896Z,7.70
2023-02-12T14:31:33.063Z,8.43
2023-02-12T14:33:28.180Z,5.53
2023-02-12T14:34:55.574Z,5.05
2023-02-12T14:37:03.738Z,5.15
2023-02-12T14:39:07.231Z,6.00
2023-02-12T14:40:55.262Z,5.93
2023-02-12T14:42:59.079Z,5.68
2023-02-12T14:48:17.349Z,4.72
2023-02-12T14:49:50.539Z,5.03
2023-02-12T14:51:21.208Z,5.70
2023-02-12T14:53:02.224Z,5.03
2023-02-12T14:55:09.979Z,5.95
2023-02-12T14:56:57.595Z,6.13
2023-02-12T14:58:31.605Z,5.10
2023-02-12T15:00:34.923Z,5.40
2023-02-12T15:02:05.707Z,5.75
2023-02-12T15:03:43.594Z,5.15
2023-02-12T15:05:22.829Z,5.25
2023-02-12T15:09:13.645Z,4.95
2023-02-12T15:10:43.484Z,5.97
2023-02-12T15:14:24.084Z,5.40
2023-02-12T15:15:53.838Z,5.72
2023-02-12T15:17:43.014Z,5.38
2023-02-12T15:19:23.266Z,6.20
2023-02-12T15:20:55.960Z,6.20
2023-02-12T15:22:32.319Z,5.85
2023-02-12T15:24:23.838Z,6.47
2023-02-12T15:25:52.148Z,5.63
2023-02-12T15:27:25.036Z,5.65
2023-02-12T15:29:15.517Z,5.32
2023-02-12T15:30:49.265Z,7.70
2023-02-12T15:32:24.217Z,7.13
2023-02-12T15:33:50.562Z,6.22
2023-02-12T15:35:29.356Z,5.95
2023-02-12T15:36:52.333Z,6.43
2023-02-12T15:38:24.026Z,6.78
2023-02-12T15:39:52.306Z,6.15
2023-02-12T15:41:37.848Z,6.32
2023-02-12T15:43:14.845Z,6.57
2023-02-12T15:44:45.298Z,6.03
2023-02-12T15:47:11.931Z,7.22
2023-02-12T15:50:59.465Z,7.50
2023-02-12T15:52:24.958Z,6.93
2023-02-12T15:53:49.784Z,6.85
2023-02-12T15:55:18.474Z,6.22
2023-02-12T15:56:45.296Z,7.13
2023-02-12T15:58:23.631Z,6.18
2023-02-12T15:59:57.981Z,7.30
2023-02-12T16:01:24.986Z,7.93
2023-02-12T16:02:54.554Z,7.20
2023-02-12T16:04:19.832Z,7.10
2023-02-12T16:05:42.795Z,7.70
2023-02-12T16:07:06.524Z,7.25
2023-02-12T16:08:55.614Z,7.65
2023-02-12T16:10:22.422Z,8.18
2023-02-12T16:11:44.583Z,8.70
2023-02-12T16:13:23.615Z,8.80
2023-02-12T16:14:54.177Z,8.65
2023-02-12T16:16:45.395Z,8.73
2023-02-12T16:18:18.956Z,9.98
2023-02-12T16:20:23.461Z,8.88
2023-02-12T16:21:51.862Z,12.13
2023-02-12T16:23:18.481Z,10.30
2023-02-12T16:24:47.405Z,9.50
2023-02-12T16:26:44.934Z,13.48
2023-02-12T16:28:16.609Z,13.02
2023-02-12T16:29:47.605Z,13.60
2023-02-12T16:31:18.004Z,13.45
2023-02-12T16:32:50.784Z,13.35
2023-02-12T16:36:06.872Z,13.98
2023-02-12T16:37:59.852Z,14.52
2023-02-12T16:40:24.157Z,13.00
2023-02-12T16:42:25.026Z,15.23
2023-02-12T16:43:48.425Z,17.00
2023-02-12T16:45:51.872Z,16.00
2023-02-12T16:47:25.672Z,15.20
2023-02-12T16:51:35.758Z,17.80
2023-02-12T16:56:40.212Z,28.80
2023-02-12T16:58:33.066Z,20.80
2023-02-12T17:00:05.861Z,18.92
2023-02-12T17:01:48.636Z,16.65
2023-02-12T17:03:26.394Z,18.38
2023-02-12T17:05:15.741Z,18.10
2023-02-12T17:06:48.568Z,17.05
2023-02-12T17:08:44.615Z,18.55
2023-02-12T17:10:34.038Z,20.75
2023-02-12T17:14:39.126Z,28.85
2023-02-12T17:16:31.890Z,23.88
2023-02-12T17:18:42.773Z,20.58
2023-02-12T17:20:40.221Z,19.23
2023-02-12T17:22:54.795Z,20.88
2023-02-12T17:24:52.448Z,19.55
2023-02-12T17:26:35.817Z,19.75
2023-02-12T17:28:18.420Z,17.20
2023-02-12T17:29:48.212Z,16.85
2023-02-12T17:31:21.141Z,17.85
2023-02-12T17:33:21.963Z,29.38
2023-02-12T17:35:13.855Z,36.53
2023-02-12T17:37:27.099Z,26.83
2023-02-12T17:40:52.723Z,20.33
2023-02-12T17:42:41.156Z,16.80
2023-02-12T17:46:18.431Z,17.75
2023-02-12T17:47:44.830Z,16.58
2023-02-12T17:49:27.202Z,16.50
2023-02-12T17:51:15.931Z,15.82
2023-02-12T17:53:03.534Z,16.52
2023-02-12T17:54:57.515Z,15.88
2023-02-12T17:56:53.772Z,17.08
2023-02-12T17:58:20.062Z,17.25
2023-02-12T18:02:22.993Z,16.52
2023-02-12T18:04:40.411Z,18.92
2023-02-12T18:06:10.380Z,16.50
2023-02-12T18:10:32.186Z,16.38
2023-02-12T18:14:08.246Z,16.35
2023-02-12T18:15:44.764Z,19.20
2023-02-12T18:19:19.283Z,17.55
2023-02-12T18:21:21.021Z,19.50
2023-02-12T18:23:20.025Z,17.55
2023-02-12T18:24:55.546Z,18.95
2023-02-12T18:26:33.929Z,18.50
2023-02-12T18:28:12.696Z,17.98
2023-02-12T18:29:41.192Z,19.02
2023-02-12T18:31:08.823Z,18.35
2023-02-12T18:32:59.236Z,18.73
2023-02-12T18:34:56.059Z,18.52
2023-02-12T18:36:29.581Z,18.67
2023-02-12T18:37:53.269Z,18.73
2023-02-12T18:40:39.102Z,18.95
2023-02-12T18:43:04.070Z,18.20
2023-02-12T18:44:37.663Z,17.00
2023-02-12T18:46:34.635Z,18.60
2023-02-12T18:48:33.516Z,18.92
2023-02-12T18:50:42.971Z,19.08
2023-02-12T18:52:22.188Z,18.75
2023-02-12T18:54:21.989Z,19.90
2023-02-12T18:55:51.380Z,18.30
2023-02-12T18:57:22.086Z,19.73
2023-02-12T18:59:42.601Z,20.33
2023-02-12T19:01:21.697Z,18.88
2023-02-12T19:02:51.435Z,20.10
2023-02-12T19:05:17.612Z,20.85
2023-02-12T19:06:56.604Z,19.42
2023-02-12T19:08:57.698Z,20.25
2023-02-12T19:11:03.837Z,19.92
2023-02-12T19:14:38.894Z,20.92
2023-02-12T19:14:49.305Z,19.38
2023-02-12T19:16:20.845Z,20.85
2023-02-12T19:18:01.027Z,21.48
2023-02-12T19:20:15.716Z,20.70
2023-02-12T19:22:23.021Z,18.95
2023-02-12T19:24:17.182Z,19.88
2023-02-12T19:25:48.460Z,20.17
2023-02-12T19:29:34.604Z,19.75
2023-02-12T19:31:34.110Z,20.30
2023-02-12T19:33:11.849Z,20.27
2023-02-12T19:34:42.577Z,18.92
2023-02-12T19:36:46.887Z,18.77
2023-02-12T19:38:41.918Z,19.52
2023-02-12T19:40:11.323Z,17.77
2023-02-12T19:41:41.233Z,17.40
2023-02-12T19:43:26.800Z,18.77
2023-02-12T19:45:01.844Z,18.73
2023-02-12T19:46:52.431Z,20.63
2023-02-12T19:48:25.576Z,18.67
2023-02-12T19:52:15.372Z,18.30
2023-02-12T19:53:43.125Z,20.15
2023-02-12T19:55:06.616Z,20.33
2023-02-12T19:57:18.264Z,18.52
2023-02-12T19:58:51.836Z,21.10
2023-02-12T20:00:18.515Z,19.20
2023-02-12T20:01:44.158Z,20.25
2023-02-12T20:03:17.909Z,20.80
2023-02-12T20:04:45.623Z,20.00
2023-02-12T20:06:21.616Z,20.83
2023-02-12T20:07:57.570Z,19.55
2023-02-12T20:09:30.057Z,20.85
2023-02-12T20:10:55.722Z,21.17
2023-02-12T20:12:24.078Z,21.13
2023-02-12T20:13:54.056Z,21.75
2023-02-12T20:15:17.949Z,21.35
2023-02-12T20:16:53.536Z,23.80
2023-02-12T20:18:28.139Z,23.05
2023-02-12T20:20:16.075Z,23.17
2023-02-12T20:21:48.134Z,22.92
2023-02-12T20:23:15.175Z,22.23
2023-02-12T20:24:41.891Z,23.63
2023-02-12T20:26:24.361Z,23.52
2023-02-12T20:27:51.308Z,23.85
2023-02-12T20:29:15.883Z,22.75
2023-02-12T20:31:19.537Z,23.35
2023-02-12T20:32:44.902Z,23.35
2023-02-12T20:34:16.942Z,22.90
2023-02-12T20:35:47.255Z,22.70
2023-02-12T20:37:16.601Z,23.63
2023-02-12T20:38:53.334Z,23.52
2023-02-12T20:40:20.095Z,23.85
2023-02-12T20:44:11.826Z,22.77
2023-02-12T20:44:22.891Z,24.17
2023-02-12T20:46:24.261Z,22.48
2023-02-12T20:47:52.495Z,23.77
2023-02-12T20:49:19.568Z,23.33
2023-02-12T20:50:51.971Z,23.35
2023-02-12T20:52:38.297Z,24.17
2023-02-12T20:54:07.334Z,22.88
2023-02-12T20:55:41.872Z,22.70
2023-02-12T20:57:13.166Z,23.92
2023-02-12T20:58:48.764Z,23.90
2023-02-12T21:00:21.096Z,23.23
2023-02-12T21:01:47.103Z,23.80
2023-02-12T21:03:15.691Z,24.08
2023-02-12T21:04:43.191Z,24.48
2023-02-12T21:06:24.337Z,24.13
2023-02-12T21:07:54.624Z,23.95
2023-02-12T21:09:33.787Z,23.35
2023-02-12T21:11:18.750Z,23.77
2023-02-12T21:12:49.761Z,25.05
2023-02-12T21:14:32.049Z,24.27
2023-02-12T21:16:11.678Z,23.20
2023-02-12T21:17:47.114Z,24.13
2023-02-12T21:19:14.377Z,22.58
2023-02-12T21:21:11.294Z,22.83
2023-02-12T21:22:51.890Z,23.42
2023-02-12T21:27:20.849Z,18.05
2023-02-12T21:28:47.850Z,24.88
2023-02-12T21:30:26.501Z,24.20
2023-02-12T21:31:56.346Z,23.75
2023-02-12T21:34:48.600Z,22.88
2023-02-12T21:36:18.271Z,24.48
2023-02-12T21:37:43.172Z,24.85
2023-02-12T21:39:37.254Z,22.65
2023-02-12T21:41:18.623Z,24.60
2023-02-12T21:43:20.958Z,23.35
2023-02-12T21:44:44.964Z,24.27
2023-02-12T21:46:10.726Z,24.70
2023-02-12T21:47:38.669Z,23.92
2023-02-12T21:49:07.068Z,25.02
2023-02-12T21:50:39.786Z,25.77
2023-02-12T21:52:19.406Z,25.13
2023-02-12T21:53:45.422Z,23.42
2023-02-12T21:55:19.354Z,25.17
2023-02-12T21:56:47.227Z,25.35
2023-02-12T21:58:22.142Z,25.27
2023-02-12T21:59:57.318Z,26.55
2023-02-12T22:01:24.871Z,25.35
2023-02-12T22:03:08.706Z,24.63
2023-02-12T22:04:31.757Z,24.23
2023-02-12T22:06:29.187Z,24.38
2023-02-12T22:08:05.943Z,24.80
2023-02-12T22:09:45.425Z,24.77
2023-02-12T22:12:03.378Z,24.70
2023-02-12T22:13:26.093Z,23.98
2023-02-12T22:14:57.994Z,24.42
2023-02-12T22:16:31.276Z,25.20
2023-02-12T22:17:59.565Z,26.40
2023-02-12T22:19:22.564Z,25.67
2023-02-12T22:20:46.357Z,24.48
2023-02-12T22:22:13.458Z,23.00
2023-02-12T22:23:46.546Z,24.23
2023-02-12T22:25:17.967Z,23.27
2023-02-12T22:26:42.738Z,23.77
2023-02-12T22:28:16.670Z,24.02
2023-02-12T22:29:45.256Z,24.75
2023-02-12T22:31:24.933Z,23.88
2023-02-12T22:33:01.205Z,24.75
2023-02-12T22:34:37.545Z,23.88
2023-02-12T22:36:05.553Z,24.17
2023-02-12T22:37:42.044Z,24.58
2023-02-12T22:39:06.744Z,23.60
2023-02-12T22:40:57.205Z,22.55
2023-02-12T22:42:23.071Z,22.80
2023-02-12T22:43:54.248Z,22.63